KFFT

Capital City Airport

Frankfort, Kentucky, USA
METAR KFFT 140353Z AUTO 34006KT 10SM CLR 00/M03 A3043 RMK AO2 SLP309 T00001033
Observed Flight Rules
Nov-14 @ 03:53 UTC (55 minutes ago) Visual Flight Rules
Wind Visibility Clouds
340° at 6 knots 10 miles
  • Clear skies
Temperatures Readings
Current 0°C / 32°F
Dewpoint -3°C / 27°F
Humidity 80%
Altimeter 30.43" Hg
Pressure 1030.9 hPa
Elevation 236
METAR KFFT 140353Z AUTO 34006KT 10SM CLR 00/M03 A3043 RMK AO2 SLP309 T00001033
Observed Flight Rules
Nov-14 @ 03:53 UTC
(55 minutes ago)
VFR
Wind Visibility
340° at 6 knots 10 miles
Clouds
  • Clear skies
Temperature Dewpoint
0°C / 32°F -3°C / 27°F
Humidity Altimeter Pressure
80% 30.43" Hg 1030.9 hPa